Time;durP1;ratioP1;P1;durP2;ratioP2;P2;SDS_P1;SDS_P2;PMS_P1;PMS_P2;Temp;Humidity;BMP_temperature;BMP_pressure;BME280_temperature;BME280_humidity;BME280_pressure;Samples;Min_cycle;Max_cycle;Signal;HPM_P1;HPM_P2
2023/07/21 00:02:15;349539.00;1.17;603.07;66831.00;0.22;116.28;;;;;24.10;1.00;;;;;;2276385;61;1364;-88
2023/07/21 00:04:46;706583.00;2.36;1218.66;122655.00;0.41;212.66;;;;;24.20;1.00;;;;;;2276214;61;1469;-86
2023/07/21 00:07:13;1029679.00;3.43;1785.11;121898.00;0.41;211.36;;;;;24.20;1.00;;;;;;2276326;61;2017;-86
2023/07/21 00:09:49;663885.00;2.21;1144.67;61763.00;0.21;107.52;;;;;24.10;1.00;;;;;;2276420;61;1004;-87
2023/07/21 00:12:16;541775.00;1.81;933.78;221.00;0.00;1.00;;;;;24.30;1.00;;;;;;2276333;61;1381;-87
2023/07/21 00:14:52;149841.00;0.50;259.53;0.00;0.00;0.62;;;;;24.40;1.00;;;;;;2276199;61;1100;-88
2023/07/21 00:17:20;538628.00;1.80;928.36;0.00;0.00;0.62;;;;;24.20;1.00;;;;;;2276220;61;1591;-89
2023/07/21 00:19:47;610727.00;2.04;1052.75;0.00;0.00;0.62;;;;;23.90;1.00;;;;;;2276139;61;1690;-84
2023/07/21 00:22:16;332211.00;1.11;573.29;49911.00;0.17;87.03;;;;;24.00;1.00;;;;;;2276092;61;1690;-88
2023/07/21 00:24:45;574076.00;1.91;989.48;34159.00;0.11;59.78;;;;;24.30;1.00;;;;;;2276188;61;1116;-88
2023/07/21 00:27:17;1171823.00;3.91;2039.36;135699.00;0.45;235.16;;;;;24.40;1.00;;;;;;2276169;61;2013;-88
2023/07/21 00:29:44;648703.00;2.16;1118.39;14727.00;0.05;26.14;;;;;24.30;1.00;;;;;;2276284;61;1461;-88
2023/07/21 00:32:18;559826.00;1.87;964.90;0.00;0.00;0.62;;;;;23.90;1.00;;;;;;2276174;61;1606;-87
2023/07/21 00:34:48;336660.00;1.12;580.93;0.00;0.00;0.62;;;;;23.60;1.00;;;;;;2276109;61;1549;-88
2023/07/21 00:37:15;850874.00;2.84;1470.00;84429.00;0.28;146.69;;;;;23.30;1.00;;;;;;2276251;61;1146;-88
2023/07/21 00:39:44;535332.00;1.78;922.68;0.00;0.00;0.62;;;;;23.00;1.00;;;;;;2276150;61;983;-87
2023/07/21 00:42:15;530498.00;1.77;914.35;23649.00;0.08;41.59;;;;;22.90;1.00;;;;;;2276236;61;1367;-87
2023/07/21 00:44:41;840686.00;2.80;1452.17;84850.00;0.28;147.41;;;;;22.90;1.00;;;;;;2276211;61;1548;-88
2023/07/21 00:47:08;897486.00;2.99;1551.71;100371.00;0.33;174.21;;;;;22.90;1.00;;;;;;2276152;61;2009;-88
2023/07/21 00:49:37;595581.00;1.99;1026.59;49145.00;0.16;85.71;;;;;22.90;1.00;;;;;;2276235;61;947;-87
2023/07/21 00:52:06;642655.00;2.14;1107.93;44710.00;0.15;78.04;;;;;22.70;1.00;;;;;;2276138;61;1534;-88
2023/07/21 00:54:33;1010347.00;3.37;1750.81;87575.00;0.29;152.12;;;;;22.70;1.00;;;;;;2276270;61;1029;-88
2023/07/21 00:57:00;525499.00;1.75;905.74;0.00;0.00;0.62;;;;;22.60;1.00;;;;;;2276250;61;1217;-87
2023/07/21 00:59:27;675773.00;2.25;1165.25;55570.00;0.19;96.82;;;;;22.70;1.00;;;;;;2276087;61;1109;-87
2023/07/21 01:01:54;952852.00;3.18;1649.14;80159.00;0.27;139.31;;;;;22.70;1.00;;;;;;2276218;61;1380;-88
2023/07/21 01:04:26;680232.00;2.27;1172.98;91336.00;0.30;158.61;;;;;22.60;1.00;;;;;;2276231;61;948;-87
2023/07/21 01:07:03;987304.00;3.29;1710.00;60590.00;0.20;105.50;;;;;22.30;1.00;;;;;;2276154;61;1978;-88
2023/07/21 01:09:35;870688.00;2.90;1504.70;25014.00;0.08;43.95;;;;;22.20;1.00;;;;;;2276160;61;1130;-88
2023/07/21 01:12:03;225009.00;0.75;388.96;0.00;0.00;0.62;;;;;22.30;1.00;;;;;;2276213;61;1524;-89
2023/07/21 01:14:30;510913.00;1.70;880.61;86002.00;0.29;149.40;;;;;22.70;1.00;;;;;;2276087;61;1658;-87
2023/07/21 01:17:00;1004059.00;3.35;1739.66;144992.00;0.48;251.18;;;;;22.60;1.00;;;;;;2276096;61;1118;-89
2023/07/21 01:19:32;528898.00;1.76;911.59;42762.00;0.14;74.67;;;;;22.70;1.00;;;;;;2275755;61;1023;-89
2023/07/21 01:22:21;781279.00;2.60;1348.49;72147.00;0.24;125.47;;;;;22.50;1.00;;;;;;2276107;61;1440;-89
2023/07/21 01:25:09;287037.00;0.96;495.64;58504.00;0.20;101.89;;;;;22.40;1.00;;;;;;2276169;61;1447;-89
2023/07/21 01:27:40;294881.00;0.98;509.12;0.00;0.00;0.62;;;;;22.60;1.00;;;;;;2275866;61;2016;-87
2023/07/21 01:30:14;76829.00;0.26;133.56;0.00;0.00;0.62;;;;;22.90;1.00;;;;;;2276180;61;1022;-87
2023/07/21 01:32:45;178433.00;0.59;308.79;0.00;0.00;0.62;;;;;23.10;1.00;;;;;;2275965;61;1574;-88
2023/07/21 01:35:15;149520.00;0.50;258.98;0.00;0.00;0.62;;;;;23.40;1.00;;;;;;2276010;61;2291;-89
2023/07/21 01:37:46;0.00;0.00;0.62;0.00;0.00;0.62;;;;;23.10;1.00;;;;;;2276017;61;1905;-88
2023/07/21 01:40:15;149023.00;0.50;258.12;0.00;0.00;0.62;;;;;22.90;1.00;;;;;;2276075;61;2493;-87
2023/07/21 01:42:46;208349.00;0.69;360.29;0.00;0.00;0.62;;;;;22.40;1.00;;;;;;2276128;61;1411;-88
2023/07/21 01:45:19;230060.00;0.77;397.65;0.00;0.00;0.62;;;;;22.10;1.00;;;;;;2276094;61;1543;-88
2023/07/21 01:47:48;235057.00;0.78;406.25;0.00;0.00;0.62;;;;;22.00;1.00;;;;;;2276102;61;1997;-89
2023/07/21 01:50:18;183026.00;0.61;316.70;65087.00;0.22;113.27;;;;;22.00;1.00;;;;;;2276020;61;1449;-87
2023/07/21 01:52:48;43188.00;0.14;75.40;0.00;0.00;0.62;;;;;22.10;1.00;;;;;;2276108;61;1316;-89
2023/07/21 01:57:55;1126796.00;3.76;1958.41;0.00;0.00;0.62;;;;;22.00;1.00;;;;;;2277471;60;1147;-88
2023/07/21 02:00:24;139645.00;0.47;241.96;0.00;0.00;0.62;;;;;21.90;1.00;;;;;;2276217;60;1019;-89
2023/07/21 02:02:53;88952.00;0.30;154.50;0.00;0.00;0.62;;;;;22.10;1.00;;;;;;2276019;60;1616;-87
2023/07/21 02:05:22;204575.00;0.68;353.80;0.00;0.00;0.62;;;;;22.20;1.00;;;;;;2276088;60;1467;-89
2023/07/21 02:07:54;41292.00;0.14;72.12;0.00;0.00;0.62;;;;;22.00;1.00;;;;;;2276041;60;1935;-88
2023/07/21 02:10:21;105128.00;0.35;182.42;0.00;0.00;0.62;;;;;21.80;1.00;;;;;;2276099;60;1476;-89
2023/07/21 02:12:50;179943.00;0.60;311.39;0.00;0.00;0.62;;;;;21.50;1.00;;;;;;2276077;60;1418;-87
2023/07/21 02:15:19;329540.00;1.10;568.70;52301.00;0.17;91.17;;;;;21.70;1.00;;;;;;2276134;60;1002;-87
2023/07/21 02:17:47;499195.00;1.66;860.44;0.00;0.00;0.62;;;;;21.60;1.00;;;;;;2276070;60;1593;-87
2023/07/21 02:20:16;324305.00;1.08;559.70;55491.00;0.18;96.68;;;;;21.90;1.00;;;;;;2275930;60;1561;-87
2023/07/21 02:22:43;191534.00;0.64;331.35;0.00;0.00;0.62;;;;;22.20;1.00;;;;;;2276029;60;1282;-88
2023/07/21 02:25:15;142843.00;0.48;247.47;0.00;0.00;0.62;;;;;22.30;1.00;;;;;;2276052;60;2269;-88
2023/07/21 02:27:43;59132.00;0.20;102.98;0.00;0.00;0.62;;;;;22.20;1.00;;;;;;2276048;60;2006;-88
2023/07/21 02:30:16;209448.00;0.70;362.19;55283.00;0.18;96.32;;;;;22.60;1.00;;;;;;2276056;60;944;-86
2023/07/21 02:32:43;151308.00;0.50;262.06;0.00;0.00;0.62;;;;;22.70;1.00;;;;;;2275989;60;1470;-86
2023/07/21 02:35:10;58314.00;0.19;101.56;0.00;0.00;0.62;;;;;22.70;1.00;;;;;;2276156;60;986;-87
2023/07/21 02:37:37;134655.00;0.45;233.36;0.00;0.00;0.62;;;;;23.00;1.00;;;;;;2275900;60;1514;-87
2023/07/21 02:40:08;134402.00;0.45;232.92;0.00;0.00;0.62;;;;;23.10;1.00;;;;;;2276031;60;963;-88
2023/07/21 02:42:36;25734.00;0.09;45.20;0.00;0.00;0.62;;;;;22.80;1.00;;;;;;2276101;60;1463;-87
2023/07/21 02:45:04;160721.00;0.54;278.28;0.00;0.00;0.62;;;;;22.60;1.00;;;;;;2276071;60;1196;-88
2023/07/21 02:47:33;111961.00;0.37;194.21;0.00;0.00;0.62;;;;;22.50;1.00;;;;;;2275963;60;2000;-88
2023/07/21 02:50:00;172557.00;0.58;298.67;0.00;0.00;0.62;;;;;22.10;1.00;;;;;;2276026;60;955;-88
2023/07/21 02:52:27;224444.00;0.75;387.99;18063.00;0.06;31.92;;;;;21.70;1.00;;;;;;2275950;60;1377;-87
2023/07/21 02:54:54;266658.00;0.89;460.60;0.00;0.00;0.62;;;;;21.40;1.00;;;;;;2275996;60;2208;-87
2023/07/21 02:57:23;225917.00;0.75;390.52;0.00;0.00;0.62;;;;;21.30;1.00;;;;;;2275736;60;1407;-87
2023/07/21 02:59:54;0.00;0.00;0.62;0.00;0.00;0.62;;;;;21.30;1.00;;;;;;2275955;60;1000;-87
2023/07/21 03:02:24;196168.00;0.65;339.33;0.00;0.00;0.62;;;;;21.40;1.00;;;;;;2276008;60;1431;-88
2023/07/21 03:04:53;180241.00;0.60;311.90;21409.00;0.07;37.71;;;;;21.30;1.00;;;;;;2276373;60;1006;-87
2023/07/21 03:07:20;156410.00;0.52;270.85;0.00;0.00;0.62;;;;;21.30;1.00;;;;;;2276160;60;1996;-88
2023/07/21 03:09:47;165192.00;0.55;285.98;0.00;0.00;0.62;;;;;21.50;1.00;;;;;;2276296;60;847;-89
2023/07/21 03:12:14;149776.00;0.50;259.42;0.00;0.00;0.62;;;;;21.80;1.00;;;;;;2276259;60;1387;-88
2023/07/21 03:14:46;232631.00;0.78;402.08;0.00;0.00;0.62;;;;;22.10;1.00;;;;;;2276170;60;1618;-87
2023/07/21 03:17:14;50790.00;0.17;88.55;0.00;0.00;0.62;;;;;22.30;1.00;;;;;;2276272;60;1139;-87
2023/07/21 03:19:43;92830.00;0.31;161.19;0.00;0.00;0.62;;;;;22.80;1.00;;;;;;2276187;60;977;-87
2023/07/21 03:22:15;0.00;0.00;0.62;0.00;0.00;0.62;;;;;23.00;1.00;;;;;;2276225;60;1419;-87
2023/07/21 03:24:45;22981.00;0.08;40.43;0.00;0.00;0.62;;;;;23.20;1.00;;;;;;2276130;60;1618;-89
2023/07/21 03:27:14;202620.00;0.68;350.43;0.00;0.00;0.62;;;;;23.10;1.00;;;;;;2276058;60;2002;-87
2023/07/21 03:29:42;33225.00;0.11;58.16;0.00;0.00;0.62;;;;;23.10;1.00;;;;;;2276138;60;1563;-88
2023/07/21 03:32:12;76748.00;0.26;133.42;0.00;0.00;0.62;;;;;23.10;1.00;;;;;;2276537;60;1372;-88
2023/07/21 03:34:41;149786.00;0.50;259.44;0.00;0.00;0.62;;;;;22.90;1.00;;;;;;2276750;60;1443;-88
2023/07/21 03:37:09;206778.00;0.69;357.59;22795.00;0.08;40.11;;;;;23.00;1.00;;;;;;2276853;60;1142;-88
2023/07/21 03:39:45;81310.00;0.27;141.30;0.00;0.00;0.62;;;;;23.00;1.00;;;;;;2276831;60;1659;-88
2023/07/21 03:42:13;157801.00;0.53;273.25;0.00;0.00;0.62;;;;;23.10;1.00;;;;;;2276793;60;1474;-88
2023/07/21 03:44:40;331661.00;1.11;572.34;0.00;0.00;0.62;;;;;23.20;1.00;;;;;;2276825;60;1627;-88
2023/07/21 03:47:07;142056.00;0.47;246.12;0.00;0.00;0.62;;;;;22.70;1.00;;;;;;2276807;60;1915;-88
2023/07/21 03:49:35;171191.00;0.57;296.32;0.00;0.00;0.62;;;;;22.80;1.00;;;;;;2276919;60;2524;-88
2023/07/21 03:52:02;62866.00;0.21;109.43;0.00;0.00;0.62;;;;;22.80;1.00;;;;;;2276737;60;1445;-89
2023/07/21 03:54:30;227836.00;0.76;393.83;0.00;0.00;0.62;;;;;22.60;1.00;;;;;;2276858;60;1615;-87
2023/07/21 03:56:59;163833.00;0.55;283.64;0.00;0.00;0.62;;;;;22.40;1.00;;;;;;2276842;60;1102;-87
2023/07/21 03:59:29;171624.00;0.57;297.06;0.00;0.00;0.62;;;;;22.30;1.00;;;;;;2276771;60;1430;-88
2023/07/21 04:01:56;351177.00;1.17;605.88;103630.00;0.35;179.84;;;;;22.10;1.00;;;;;;2276732;60;1529;-87
2023/07/21 04:04:23;277535.00;0.93;479.30;30246.00;0.10;53.01;;;;;22.10;1.00;;;;;;2276753;60;1117;-87
2023/07/21 04:06:53;124967.00;0.42;216.65;0.00;0.00;0.62;;;;;22.20;1.00;;;;;;2276745;60;1919;-89
2023/07/21 04:09:23;167579.00;0.56;290.10;0.00;0.00;0.62;;;;;22.60;1.00;;;;;;2276776;60;1563;-89
2023/07/21 04:11:50;181640.00;0.61;314.31;0.00;0.00;0.62;;;;;22.70;1.00;;;;;;2276838;60;1273;-89
2023/07/21 04:14:19;144160.00;0.48;249.74;0.00;0.00;0.62;;;;;22.70;1.00;;;;;;2276822;60;1018;-88
2023/07/21 04:16:48;210144.00;0.70;363.38;0.00;0.00;0.62;;;;;22.60;1.00;;;;;;2276768;60;1014;-87
2023/07/21 04:19:15;140718.00;0.47;243.81;0.00;0.00;0.62;;;;;22.50;1.00;;;;;;2276768;60;1404;-88
2023/07/21 04:21:44;71061.00;0.24;123.59;0.00;0.00;0.62;;;;;23.10;1.00;;;;;;2276776;60;1368;-88
2023/07/21 04:24:11;132084.00;0.44;228.92;0.00;0.00;0.62;;;;;23.20;1.00;;;;;;2276744;60;1641;-87
2023/07/21 04:26:39;237043.00;0.79;409.66;62949.00;0.21;109.57;;;;;23.30;1.00;;;;;;2276765;60;1938;-87
2023/07/21 04:29:07;0.00;0.00;0.62;0.00;0.00;0.62;;;;;23.10;1.00;;;;;;2276801;60;1221;-87
2023/07/21 04:31:39;218697.00;0.73;378.10;23790.00;0.08;41.83;;;;;23.10;1.00;;;;;;2276610;60;1389;-88
2023/07/21 04:34:11;150987.00;0.50;261.51;0.00;0.00;0.62;;;;;23.30;1.00;;;;;;2276734;60;952;-87
2023/07/21 04:36:38;110767.00;0.37;192.15;0.00;0.00;0.62;;;;;23.20;1.00;;;;;;2276679;60;1569;-86
2023/07/21 04:39:08;184114.00;0.61;318.57;0.00;0.00;0.62;;;;;23.40;1.00;;;;;;2276754;60;973;-88
2023/07/21 04:41:34;162869.00;0.54;281.98;0.00;0.00;0.62;;;;;23.40;1.00;;;;;;2276464;60;1643;-87
2023/07/21 04:44:02;110365.00;0.37;191.46;0.00;0.00;0.62;;;;;23.40;1.00;;;;;;2276517;60;1015;-87
2023/07/21 04:46:32;101400.00;0.34;175.99;0.00;0.00;0.62;;;;;23.40;1.00;;;;;;2276605;60;2005;-87
2023/07/21 04:49:00;336049.00;1.12;579.88;117538.00;0.39;203.84;;;;;23.40;1.00;;;;;;2276560;60;1701;-86
2023/07/21 04:51:30;92638.00;0.31;160.86;0.00;0.00;0.62;;;;;23.60;1.00;;;;;;2276592;60;1316;-87
2023/07/21 04:53:58;222531.00;0.74;384.70;15940.00;0.05;28.24;;;;;23.50;1.00;;;;;;2276575;60;2229;-87
2023/07/21 04:56:28;162729.00;0.54;281.74;0.00;0.00;0.62;;;;;23.50;1.00;;;;;;2276608;60;1009;-88
2023/07/21 04:58:58;48711.00;0.16;84.96;0.00;0.00;0.62;;;;;23.70;1.00;;;;;;2276540;60;1093;-86
2023/07/21 05:01:24;170785.00;0.57;295.62;0.00;0.00;0.62;;;;;23.70;1.00;;;;;;2276484;60;1556;-87
2023/07/21 05:03:51;144967.00;0.48;251.13;0.00;0.00;0.62;;;;;24.00;1.00;;;;;;2276682;60;988;-86
2023/07/21 05:06:23;103052.00;0.34;178.84;0.00;0.00;0.62;;;;;24.40;1.00;;;;;;2276647;60;1003;-87
2023/07/21 05:08:50;137242.00;0.46;237.82;0.00;0.00;0.62;;;;;24.30;1.00;;;;;;2276634;60;2014;-86
2023/07/21 05:11:17;81878.00;0.27;142.28;0.00;0.00;0.62;;;;;24.30;1.00;;;;;;2276576;60;1365;-86
2023/07/21 05:13:48;190438.00;0.63;329.46;48479.00;0.16;84.56;;;;;23.80;1.00;;;;;;2276601;60;1137;-87
2023/07/21 05:16:16;295637.00;0.99;510.42;40742.00;0.14;71.17;;;;;23.60;1.00;;;;;;2276586;60;916;-91
2023/07/21 05:18:43;130682.00;0.44;226.51;0.00;0.00;0.62;;;;;23.70;1.00;;;;;;2276498;60;1466;-88
2023/07/21 05:21:10;181798.00;0.61;314.59;0.00;0.00;0.62;;;;;24.00;1.00;;;;;;2276594;60;1382;-88
2023/07/21 05:23:39;140619.00;0.47;243.64;0.00;0.00;0.62;;;;;24.30;1.00;;;;;;2276647;60;1047;-88
2023/07/21 05:26:11;235758.00;0.79;407.45;0.00;0.00;0.62;;;;;24.40;1.00;;;;;;2276664;60;944;-88
2023/07/21 05:28:38;96242.00;0.32;167.08;0.00;0.00;0.62;;;;;24.30;1.00;;;;;;2276458;60;1932;-87
2023/07/21 05:31:06;155170.00;0.52;268.72;0.00;0.00;0.62;;;;;24.00;1.00;;;;;;2276567;60;1707;-89
2023/07/21 05:33:33;9453.00;0.03;17.00;0.00;0.00;0.62;;;;;24.30;1.00;;;;;;2276537;60;904;-87
2023/07/21 05:36:05;216882.00;0.72;374.98;61130.00;0.20;106.43;;;;;24.60;1.00;;;;;;2276481;60;1593;-85
2023/07/21 05:38:33;45482.00;0.15;79.37;0.00;0.00;0.62;;;;;24.80;1.00;;;;;;2276481;60;1229;-87
2023/07/21 05:41:01;178897.00;0.60;309.59;3910.00;0.01;7.40;;;;;24.60;1.00;;;;;;2276594;60;1009;-88
2023/07/21 05:43:29;301421.00;1.00;520.36;0.00;0.00;0.62;;;;;24.00;1.00;;;;;;2276432;60;1852;-88
2023/07/21 05:45:56;166432.00;0.55;288.12;0.00;0.00;0.62;;;;;23.80;1.00;;;;;;2276474;60;1455;-86
2023/07/21 05:48:24;339777.00;1.13;586.29;34169.00;0.11;59.80;;;;;24.60;1.00;;;;;;2276500;60;1919;-85
2023/07/21 05:50:53;3248.00;0.01;6.25;0.00;0.00;0.62;;;;;26.10;1.00;;;;;;2276494;60;1273;-86
2023/07/21 05:53:20;148630.00;0.50;257.45;0.00;0.00;0.62;;;;;27.30;1.00;;;;;;2276395;60;1576;-87
2023/07/21 05:55:51;150890.00;0.50;261.34;0.00;0.00;0.62;;;;;28.20;1.00;;;;;;2276163;60;1559;-89
2023/07/21 05:58:21;171309.00;0.57;296.52;0.00;0.00;0.62;;;;;28.40;1.00;;;;;;2276478;60;1018;-88
2023/07/21 06:00:48;162356.00;0.54;281.10;0.00;0.00;0.62;;;;;27.70;1.00;;;;;;2276344;60;1539;-87
2023/07/21 06:03:15;211387.00;0.70;365.52;0.00;0.00;0.62;;;;;27.10;1.00;;;;;;2276367;60;1380;-88
2023/07/21 06:05:42;211057.00;0.70;364.95;0.00;0.00;0.62;;;;;27.10;1.00;;;;;;2276423;60;1604;-89
2023/07/21 06:08:12;190185.00;0.63;329.03;59297.00;0.20;103.26;;;;;26.90;1.00;;;;;;2276435;60;1905;-88
2023/07/21 06:10:44;143850.00;0.48;249.21;0.00;0.00;0.62;;;;;27.20;1.00;;;;;;2276502;60;1149;-88
2023/07/21 06:13:29;245838.00;0.82;424.79;0.00;0.00;0.62;;;;;28.00;1.00;;;;;;2276350;60;1676;-87
2023/07/21 06:15:56;283561.00;0.95;489.66;0.00;0.00;0.62;;;;;29.00;1.00;;;;;;2276409;60;1595;-87
2023/07/21 06:18:25;177004.00;0.59;306.33;0.00;0.00;0.62;;;;;30.30;1.00;;;;;;2276359;60;975;-88
2023/07/21 06:20:55;341611.00;1.14;589.44;14320.00;0.05;25.43;;;;;31.30;1.00;;;;;;2276257;60;1451;-88
2023/07/21 06:23:23;199903.00;0.67;345.76;0.00;0.00;0.62;;;;;31.20;1.00;;;;;;2276349;60;2276;-88
2023/07/21 06:25:49;111966.00;0.37;194.22;0.00;0.00;0.62;;;;;30.90;1.00;;;;;;2276442;60;1225;-88
2023/07/21 06:28:16;228696.00;0.76;395.31;0.00;0.00;0.62;;;;;31.00;1.00;;;;;;2276373;60;1920;-88
2023/07/21 06:30:45;174213.00;0.58;301.52;552.00;0.00;1.58;;;;;30.70;1.00;;;;;;2276362;60;1416;-88
2023/07/21 06:33:12;298679.00;1.00;515.65;65682.00;0.22;114.30;;;;;30.70;1.00;;;;;;2276258;60;1429;-89
2023/07/21 06:35:42;167876.00;0.56;290.61;0.00;0.00;0.62;;;;;31.20;1.00;;;;;;2276343;60;1047;-88
2023/07/21 06:38:13;155092.00;0.52;268.58;0.00;0.00;0.62;;;;;32.10;1.00;;;;;;2276331;60;1023;-88
2023/07/21 06:40:40;185742.00;0.62;321.38;0.00;0.00;0.62;;;;;33.20;1.00;;;;;;2276296;60;953;-87
2023/07/21 06:43:14;195865.00;0.65;338.81;0.00;0.00;0.62;;;;;33.20;1.00;;;;;;2276282;60;1313;-88
2023/07/21 06:45:41;169740.00;0.57;293.82;42389.00;0.14;74.02;;;;;33.30;1.00;;;;;;2276381;60;1116;-88
2023/07/21 06:48:11;280861.00;0.94;485.02;65287.00;0.22;113.62;;;;;33.60;1.00;;;;;;2276262;60;1997;-88
2023/07/21 06:50:38;253503.00;0.85;437.98;56459.00;0.19;98.36;;;;;34.70;1.00;;;;;;2276328;60;1218;-86
2023/07/21 06:53:07;365687.00;1.22;630.82;63278.00;0.21;110.14;;;;;33.50;1.00;;;;;;2276305;60;1342;-87
2023/07/21 06:55:37;222065.00;0.74;383.90;58765.00;0.20;102.34;;;;;33.40;1.00;;;;;;2276315;60;922;-86
2023/07/21 06:58:04;294223.00;0.98;507.99;60704.00;0.20;105.69;;;;;33.30;1.00;;;;;;2276270;60;1024;-88
2023/07/21 07:00:31;261735.00;0.87;452.13;56080.00;0.19;97.70;;;;;33.00;1.00;;;;;;2276310;60;1136;-88
2023/07/21 07:02:58;341283.00;1.14;588.88;97419.00;0.32;169.12;;;;;32.00;1.00;;;;;;2276206;60;1277;-87
2023/07/21 07:05:26;359995.00;1.20;621.04;60687.00;0.20;105.66;;;;;31.10;1.00;;;;;;2276233;60;1615;-89
2023/07/21 07:07:56;320787.00;1.07;553.65;65007.00;0.22;113.13;;;;;30.00;1.00;;;;;;2283599;55;3757;-90
2023/07/21 07:10:25;391953.00;1.31;675.97;58846.00;0.20;102.48;;;;;30.20;1.00;;;;;;2280283;60;2062;-89
2023/07/21 07:12:52;574203.00;1.91;989.70;104184.00;0.35;180.79;;;;;30.30;1.00;;;;;;2280239;60;1552;-89
2023/07/21 07:15:19;468972.00;1.56;808.42;139902.00;0.47;242.40;;;;;30.20;1.00;;;;;;2280250;60;927;-89
2023/07/21 07:17:46;289757.00;0.97;500.31;59406.00;0.20;103.45;;;;;30.30;1.00;;;;;;2280326;60;1113;-87
2023/07/21 07:20:13;725587.00;2.42;1251.64;195457.00;0.65;338.10;;;;;30.40;1.00;;;;;;2279925;60;1575;-89
2023/07/21 07:22:41;373939.00;1.25;645.01;63640.00;0.21;110.77;;;;;30.30;1.00;;;;;;2280255;60;1289;-89
2023/07/21 07:25:10;516193.00;1.72;889.71;69546.00;0.23;120.98;;;;;29.90;1.00;;;;;;2280104;60;1520;-89
2023/07/21 07:27:36;454585.00;1.52;783.67;68260.00;0.23;118.75;;;;;29.00;1.00;;;;;;2280178;60;1988;-88
2023/07/21 07:30:05;307776.00;1.03;531.29;58012.00;0.19;101.04;;;;;28.30;1.00;;;;;;2280256;60;1031;-89
2023/07/21 07:32:32;236454.00;0.79;408.65;68677.00;0.23;119.47;;;;;27.90;1.00;;;;;;2280180;60;1405;-88
2023/07/21 07:34:59;302429.00;1.01;522.10;68893.00;0.23;119.85;;;;;27.90;1.00;;;;;;2280344;60;933;-89
2023/07/21 07:37:28;308459.00;1.03;532.46;65342.00;0.22;113.71;;;;;28.70;1.00;;;;;;2280255;60;909;-88
2023/07/21 07:39:56;354060.00;1.18;610.84;55634.00;0.19;96.93;;;;;29.00;1.00;;;;;;2280280;60;1138;-88
2023/07/21 07:42:23;372357.00;1.24;642.29;64524.00;0.22;112.30;;;;;29.70;1.00;;;;;;2280157;60;1389;-88
2023/07/21 07:44:53;258846.00;0.86;447.16;65415.00;0.22;113.84;;;;;30.00;1.00;;;;;;2280310;60;1255;-86
2023/07/21 07:47:20;209165.00;0.70;361.70;67677.00;0.23;117.75;;;;;30.90;1.00;;;;;;2280284;60;1980;-86
2023/07/21 07:49:47;167574.00;0.56;290.09;59157.00;0.20;103.02;;;;;31.00;1.00;;;;;;2280291;60;1057;-86
2023/07/21 07:52:15;233148.00;0.78;402.96;63781.00;0.21;111.01;;;;;31.10;1.00;;;;;;2280220;60;1553;-87
2023/07/21 07:54:42;234826.00;0.78;405.85;65114.00;0.22;113.32;;;;;31.10;1.00;;;;;;2280252;60;1091;-88
2023/07/21 07:57:10;191852.00;0.64;331.90;60182.00;0.20;104.79;;;;;30.70;1.00;;;;;;2280275;60;1122;-87
2023/07/21 07:59:37;112197.00;0.37;194.62;20927.00;0.07;36.88;;;;;30.10;1.00;;;;;;2280278;60;1117;-88
2023/07/21 08:02:04;102362.00;0.34;177.65;0.00;0.00;0.62;;;;;29.90;1.00;;;;;;2280213;60;1277;-86
2023/07/21 08:04:31;0.00;0.00;0.62;0.00;0.00;0.62;;;;;29.70;1.00;;;;;;2280198;60;1160;-87
2023/07/21 08:06:58;95203.00;0.32;165.29;0.00;0.00;0.62;;;;;29.80;1.00;;;;;;2280250;60;899;-88
2023/07/21 08:09:25;73967.00;0.25;128.61;148.00;0.00;0.88;;;;;29.50;1.00;;;;;;2280135;60;1935;-88
2023/07/21 08:11:52;29265.00;0.10;51.31;0.00;0.00;0.62;;;;;29.40;1.00;;;;;;2280227;60;1304;-88
2023/07/21 08:14:20;70736.00;0.24;123.03;0.00;0.00;0.62;;;;;29.80;1.00;;;;;;2280240;60;988;-88
2023/07/21 08:16:47;180429.00;0.60;312.23;47311.00;0.16;82.54;;;;;30.90;1.00;;;;;;2280169;60;1679;-87
2023/07/21 08:19:14;320368.00;1.07;552.93;22137.00;0.07;38.97;;;;;32.10;1.00;;;;;;2280566;60;1067;-86
2023/07/21 08:21:41;128683.00;0.43;223.06;0.00;0.00;0.62;;;;;32.40;1.00;;;;;;2280906;60;1389;-87
2023/07/21 08:24:08;42369.00;0.14;73.99;0.00;0.00;0.62;;;;;32.80;1.00;;;;;;2280843;60;1459;-88
2023/07/21 08:26:35;154846.00;0.52;268.16;0.00;0.00;0.62;;;;;33.40;1.00;;;;;;2280876;60;1165;-89
2023/07/21 08:29:02;208227.00;0.69;360.08;0.00;0.00;0.62;;;;;33.80;1.00;;;;;;2280825;60;1915;-87
2023/07/21 08:31:30;329228.00;1.10;568.16;41017.00;0.14;71.65;;;;;34.10;1.00;;;;;;2280824;60;1372;-89
2023/07/21 08:33:57;172242.00;0.57;298.13;0.00;0.00;0.62;;;;;33.80;1.00;;;;;;2280860;60;1180;-88
2023/07/21 08:36:24;55704.00;0.19;97.05;0.00;0.00;0.62;;;;;33.80;1.00;;;;;;2280884;60;1033;-88
2023/07/21 08:38:51;134926.00;0.45;233.82;0.00;0.00;0.62;;;;;34.70;1.00;;;;;;2280805;60;1552;-89
2023/07/21 08:41:20;37105.00;0.12;64.88;0.00;0.00;0.62;;;;;35.50;1.00;;;;;;2280797;60;2276;-88
2023/07/21 08:43:49;192084.00;0.64;332.30;0.00;0.00;0.62;;;;;34.70;1.00;;;;;;2280860;60;1158;-87
2023/07/21 08:46:16;188941.00;0.63;326.89;73587.00;0.25;127.96;;;;;35.10;1.00;;;;;;2280816;60;1121;-87
2023/07/21 08:48:45;71134.00;0.24;123.72;0.00;0.00;0.62;;;;;34.30;1.00;;;;;;2280764;60;1990;-86
2023/07/21 08:51:12;0.00;0.00;0.62;0.00;0.00;0.62;;;;;34.60;1.00;;;;;;2280641;60;1538;-87
2023/07/21 08:53:40;369.00;0.00;1.26;0.00;0.00;0.62;;;;;34.90;1.00;;;;;;2280785;60;955;-88
2023/07/21 08:56:06;0.00;0.00;0.62;0.00;0.00;0.62;;;;;35.50;1.00;;;;;;2280758;60;1063;-88
2023/07/21 08:58:33;0.00;0.00;0.62;0.00;0.00;0.62;;;;;36.60;1.00;;;;;;2280823;60;1033;-87
2023/07/21 09:01:00;0.00;0.00;0.62;0.00;0.00;0.62;;;;;37.10;1.00;;;;;;2280812;60;1152;-89
2023/07/21 09:03:29;0.00;0.00;0.62;0.00;0.00;0.62;;;;;36.40;1.00;;;;;;2280668;60;1323;-89
2023/07/21 09:06:00;28536.00;0.10;50.05;0.00;0.00;0.62;;;;;36.10;1.00;;;;;;2280745;60;1203;-88
2023/07/21 09:08:28;22103.00;0.07;38.91;0.00;0.00;0.62;;;;;35.60;1.00;;;;;;2280673;60;1918;-88
2023/07/21 09:10:59;0.00;0.00;0.62;0.00;0.00;0.62;;;;;35.10;1.00;;;;;;2280765;60;949;-88
2023/07/21 09:13:27;82161.00;0.27;142.77;0.00;0.00;0.62;;;;;35.40;1.00;;;;;;2280703;60;1313;-85
2023/07/21 09:15:55;100351.00;0.33;174.18;0.00;0.00;0.62;;;;;35.80;1.00;;;;;;2280737;60;1062;-87
2023/07/21 09:18:27;421477.00;1.40;726.73;33066.00;0.11;57.89;;;;;35.90;1.00;;;;;;2280722;60;1007;-87
2023/07/21 09:20:54;263430.00;0.88;455.05;76608.00;0.26;133.18;;;;;35.70;1.00;;;;;;2280705;60;969;-86
2023/07/21 09:23:23;151008.00;0.50;261.54;0.00;0.00;0.62;;;;;34.40;1.00;;;;;;2280750;60;1372;-86
2023/07/21 09:25:54;0.00;0.00;0.62;0.00;0.00;0.62;;;;;34.80;1.00;;;;;;2280745;60;1055;-88
2023/07/21 09:28:21;196782.00;0.66;340.38;0.00;0.00;0.62;;;;;33.10;1.00;;;;;;2280636;60;1996;-88
2023/07/21 09:30:53;54542.00;0.18;95.04;0.00;0.00;0.62;;;;;33.20;1.00;;;;;;2280694;60;1058;-88
2023/07/21 09:33:24;27717.00;0.09;48.63;0.00;0.00;0.62;;;;;33.00;1.00;;;;;;2280653;60;1299;-88
2023/07/21 09:36:04;176608.00;0.59;305.65;0.00;0.00;0.62;;;;;32.80;1.00;;;;;;2280620;60;1546;-87
2023/07/21 09:38:34;747146.00;2.49;1289.10;271956.00;0.91;469.71;;;;;32.40;1.00;;;;;;2280665;60;1023;-89
2023/07/21 09:41:02;123904.00;0.41;214.82;0.00;0.00;0.62;;;;;31.50;1.00;;;;;;2280646;60;1427;-88
2023/07/21 09:43:30;51213.00;0.17;89.28;0.00;0.00;0.62;;;;;31.40;1.00;;;;;;2280608;60;1289;-88
2023/07/21 09:46:00;170419.00;0.57;294.99;0.00;0.00;0.62;;;;;31.50;1.00;;;;;;2280730;60;1016;-87
2023/07/21 09:48:28;0.00;0.00;0.62;0.00;0.00;0.62;;;;;31.80;1.00;;;;;;2280661;60;1911;-88
2023/07/21 09:50:59;294068.00;0.98;507.72;0.00;0.00;0.62;;;;;31.80;1.00;;;;;;2280635;60;946;-87
2023/07/21 09:53:35;189084.00;0.63;327.13;0.00;0.00;0.62;;;;;31.60;1.00;;;;;;2280649;60;1202;-86
2023/07/21 09:56:04;62755.00;0.21;109.24;0.00;0.00;0.62;;;;;31.70;1.00;;;;;;2280630;60;944;-87
2023/07/21 09:58:32;103842.00;0.35;180.20;0.00;0.00;0.62;;;;;32.10;1.00;;;;;;2280581;60;1024;-88
2023/07/21 10:01:03;134760.00;0.45;233.54;0.00;0.00;0.62;;;;;31.70;1.00;;;;;;2280677;60;1122;-87